Terminal Aerodrome Forecast
Issued by NWS

Home | Current Version | Previous Version | Graphics & Text | Print | Product List | Glossary On
Versions: 1 2 3 4 5 6 7 8 9 10 11 12 13 14 15
000
FTUS43 KIWX 212100 AAA
TAFSBN
TAF AMD
KSBN 212151Z 2122/2218 23012G20KT P6SM VCTS BKN080CB
      TEMPO 2122/2202 5SM -SHRA BKN050
     FM220200 27008KT 6SM -SHRA BKN040
     FM220600 31012KT P6SM BKN035
     FM221300 32018G25KT P6SM SKC=

USA.gov is the U.S. government's official web portal to all federal, state and local government web resources and services.